Aérodrome :
LOGIN :

S'inscrire | Disclaimer

   EN    FR    IT 

 










Légende :    VFR   VFR Marginal   IFR   IFR Intensif   IFR Très Intensif
Visi : 
Plafond : 
>= 8 km
>= 3000ft
5 à 8 km
1000 à 3000 ft
1500m à 5 km
500 à 1000 ft
800 à 1500m
200 à 500 ft
< 800m
< 200 ft
Symboles :   Orages  Brouillard  Fortes neiges  Fortes précipitations  Vent > 20 kt
SIGMETs :   Divers  Orages  Givrage  Turbulence  Onde Orograph.  Cendres Volcan.






- Altitude de l'aérodrome : 306 ft
- Code IATA : EMA


EGNX - Nottingham East Midlands

DERNIER METAR :
  • 070050Z 26021KT 9999 SCT032 08/06 Q1007

METARs EXPIRÉS :
  • 070020Z 25014KT 9999 SCT034 08/06 Q1007
  • 062350Z 25017KT 9999 SCT036 08/06 Q1007
  • 062320Z 24015KT 9999 SCT031 08/06 Q1006
  • 062250Z 25014KT 9999 SCT031 08/06 Q1006
  • 062220Z 25013KT 9999 BKN036 08/06 Q1006

TAF TAF EGNX
Valide du 07 à 00h jusqu'au 08 à 00h UTC


062257Z 0700/0724 27012KT 9999 SCT030
BECMG 0713/0716 21007KT
TEMPO 0716/0719 BKN012
BECMG 0719/0722 20017G27KT BKN012
TEMPO 0722/0724 21023G37KT SCT012
PROB30
TEMPO 0723/0724 6000 RA
ATIS : +44 1332 852 852 (ext 3201)



MET'MAP, la Météo Aéronautique d'un coup d'oeil ! - Copyright ORBIFLY Décembre 2007 - Disclaimer

ORBIFLY MET'MAP TEAM :

Programmation & Développement : Alexandra Zaïnal
Sur une idée originale de : Baudouin d'Aumeries
Assistance à la programmation : Marc-Olivier Méhu
Soutien technique & logistique : Manuel Goepfert

Contact : metmap@orbifly.com




SOURCES & CREDITS :

   NOAA